Terminal Aerodrome Forecast
Issued by NWS Cleveland, OH

Home | Current Version | Previous Version | Text Only | Print | Product List | Glossary Off
Versions: 1 2 3 4 5 6 7 8 9 10 11 12 13 14 15 16 17 18 19 20

466
FTUS41 KCLE 282333
TAFCAK
TAF
KCAK 282333Z 2900/2924 02007KT 6SM -RA BR OVC050
     FM290400 10010KT 5SM -RA BR OVC025
     FM290700 10010KT 3SM -RA BR OVC015
     FM291500 10012KT P6SM VCSH OVC035
     FM292200 09012KT 3SM -RA BR SCT010 OVC025=

USA.gov is the U.S. government's official web portal to all federal, state and local government web resources and services.